Ashton, Arkansas
Current Conditions -  °F | °C
As of 2:53 PM on Saturday 22 Nov 2014 (Local Time) from KGLH Reporting Station
Clear Clear  
Wind Chill: 69°   Ceiling: Unl
Heat Index: 69°   Visibility: 10mi
Dew Point: 51°   Wind: 10mph
Humidity: 53%   Direction: 150°SSE
Pressure: 30.04"   Gusts: NA
Location:  33.3324°N, 91.3183°W
Report Text: KGLH 222053Z AUTO 15009KT 10SM CLR 21/11 A3004 RMK AO2 SLP178 T02060106 56038
Loading
Personal Weather Stations






























Interactive Weather Map New forecast layout! Learn more

10-Day Weather Forecast

Advertisements
Track Severe Weather on mobile